Flight Track Log - Related Links

Times and Time Zones

All times are in EDT time to prevent confusion due to time zone crossing. See the N4137F flight status page for this flight to view local times or setup timezone preferences in your user account.

Time Position Orientation Groundspeed Altitude Reporting Facility
EDT Latitude Longitude Course Direction KTS MPH feet Rate Location/Type
Sat 12:00:10 PM 27.4928 -80.4083 344° North 128 147 600  Level Miami Center
Sat 12:01:10 PM 27.4756 -80.4289 227° Southwest 97 112 1,000 450 Climbing Miami Center
Sat 12:02:10 PM 27.4644 -80.4542 244° Southwest 91 105 1,500 450 Climbing Miami Center
Sat 12:03:00 PM 27.6951 -80.4484 344° North  Level FlightAware Approximate
Sat 12:03:10 PM 27.4533 -80.4797 244° Southwest 91 105 1,900  Level Miami Center
Sat 12:04:10 PM 27.4425 -80.5028 242° Southwest 96 110 2,200 350 Climbing Miami Center
Sat 12:05:10 PM 27.4314 -80.5281 244° Southwest 96 110 2,600 300 Climbing Miami Center
Sat 12:06:10 PM 27.4581 -80.5478 327° Northwest 82 94 2,800 300 Climbing Miami Center
Sat 12:07:10 PM 27.4892 -80.5533 351° North 98 113 3,200 350 Climbing Miami Center
Sat 12:08:10 PM 27.5183 -80.5567 354° North 110 127 3,500 250 Climbing Miami Center
Sat 12:09:10 PM 27.5458 -80.5458 19° North 110 127 3,700 300 Climbing Miami Center
Sat 12:10:10 PM 27.5808 -80.5564 345° North 105 121 4,100 400 Climbing Miami Center
Sat 12:11:10 PM 27.6122 -80.5619 351° North 105 121 4,500 350 Climbing Miami Center
Sat 12:12:10 PM 27.6433 -80.5678 351° North 105 121 4,800 300 Climbing Miami Center
Sat 12:13:10 PM 27.6725 -80.5733 350° North 110 127 5,100 150 Climbing Miami Center
Sat 12:14:10 PM 27.7097 -80.5792 352° North 117 135 5,100 -29 Level Miami Center
Sat 12:16:40 PM 27.8167 -80.6000 350° North 144 166 5,000 -29 Descending Orlando TRACON
Sat 12:17:40 PM 27.8500 -80.6000 360° North 139 160 5,000  Level Orlando TRACON
Sat 12:18:40 PM 27.9000 -80.6167 344° North 144 166 5,000  Level Orlando TRACON
Sat 12:19:40 PM 27.9333 -80.6167 360° North 145 167 5,000  Level Orlando TRACON
Sat 12:20:40 PM 27.9667 -80.6333 336° Northwest 144 166 5,000  Level Orlando TRACON
Sat 12:21:40 PM 28.0167 -80.6333 360° North 145 167 5,000  Level Orlando TRACON
Sat 12:22:46 PM 28.0500 -80.6500 336° Northwest 145 167 5,000  Level Orlando TRACON
Sat 12:23:46 PM 28.1000 -80.6500 360° North 147 169 5,000  Level Orlando TRACON
Sat 12:24:46 PM 28.1333 -80.6667 336° Northwest 141 162 5,000  Level Orlando TRACON
Sat 12:25:46 PM 28.1833 -80.6667 360° North 149 171 5,000  Level Orlando TRACON
Sat 12:26:41 PM 28.2167 -80.6833 336° Northwest 148 170 5,000  Level Orlando TRACON
Sat 12:27:35 PM 28.2500 -80.6833 360° North 148 170 5,000  Level Orlando TRACON
Sat 12:28:41 PM 28.3000 -80.7000 344° North 149 171 5,000  Level Orlando TRACON
Sat 12:29:41 PM 28.3333 -80.7000 360° North 149 171 5,000  Level Orlando TRACON
Sat 12:30:41 PM 28.3833 -80.7000 360° North 146 168 5,000  Level Orlando TRACON
Sat 12:31:47 PM 28.4167 -80.7167 336° Northwest 144 166 5,000  Level Orlando TRACON
Sat 12:32:47 PM 28.4667 -80.7167 360° North 145 167 5,000  Level Orlando TRACON
Sat 12:33:41 PM 28.5000 -80.7333 336° Northwest 144 166 5,000  Level Orlando TRACON
Sat 12:34:41 PM 28.5333 -80.7333 360° North 144 166 5,000  Level Orlando TRACON
Sat 12:35:41 PM 28.5667 -80.7500 336° Northwest 141 162 5,000  Level Orlando TRACON
Sat 12:36:41 PM 28.6000 -80.7667 336° Northwest 141 162 5,000  Level Orlando TRACON
Sat 12:37:41 PM 28.6333 -80.7833 336° Northwest 140 161 5,000  Level Orlando TRACON
Sat 12:38:42 PM 28.6833 -80.8167 330° Northwest 141 162 5,000  Level Orlando TRACON
Sat 12:39:36 PM 28.7000 -80.8333 319° Northwest 141 162 5,000  Level Orlando TRACON
Sat 12:41:37 PM 28.7708 -80.8842 328° Northwest 141 162 5,000  Level Jacksonville Center
Sat 12:42:44 PM 28.8067 -80.9094 328° Northwest 143 165 5,000  Level Jacksonville Center
Sat 12:43:44 PM 28.8425 -80.9325 331° Northwest 141 162 5,000 -50 Level Jacksonville Center
Sat 12:44:45 PM 28.8761 -80.9531 332° Northwest 145 167 4,900 -283 Descending Jacksonville Center
Sat 12:45:51 PM 28.9225 -80.9853 329° Northwest 164 189 4,400 -495 Descending Jacksonville Center
Sat 12:46:34 PM 28.9519 -81.0014 334° Northwest 172 198 4,000 -569 Descending Jacksonville Center
Sat 12:47:47 PM 29.0006 -81.0314 332° Northwest 168 193 3,300 -541 Descending Jacksonville Center
Sat 12:48:47 PM 29.0364 -81.0617 324° Northwest 159 183 2,800 -496 Descending Jacksonville Center
Sat 12:49:48 PM 29.0494 -81.1089 288° West 148 170 2,300 -393 Descending Jacksonville Center
Sat 12:50:49 PM 29.0458 -81.1517 264° West 138 159 2,000 -99 Descending Jacksonville Center
Sat 12:51:49 PM 29.0381 -81.1922 258° West 121 139 2,100 -45 Climbing Jacksonville Center
Sat 12:53:02 PM 29.0617 -81.2322 304° West 137 158 1,900 -179 Descending Jacksonville Center
Sat 12:54:03 PM 29.0994 -81.2528 335° Northwest 150 173 1,700 -58 Descending Jacksonville Center
Sat 12:54:45 PM 29.1117 -81.2314 57° Northeast 138 159 1,800  Climbing Jacksonville Center
Sat 12:55:46 PM 29.1300 -81.1881 64° Northeast 131 151 1,700 -197 Descending Jacksonville Center
Sat 12:56:47 PM 29.1442 -81.1500 67° East 125 144 1,400 -393 Descending Jacksonville Center
Sat 12:57:48 PM 29.1581 -81.1139 66° East 127 146 900 -492 Descending Jacksonville Center

Login

Don't have an account? Register now (free) for customized features, flight alerts, and more!